Spicewood's Hourly Summary for Thursday, May 10, 2018
Hour Temp
(f)
RH
(%)
Solar Rad.
(MJ/m2)
Rainfall
(in)
Wind
(mph)
5/10/2018 12:00 AM 72 57 0 0 5.22
5/10/2018 1:00 AM 70 69 0 0 5.96
5/10/2018 2:00 AM 69 81 0 0 7.03
5/10/2018 3:00 AM 68 85 0 0 6.69
5/10/2018 4:00 AM 67 85 0 0 5.04
5/10/2018 5:00 AM 67 89 0 0 4.45
5/10/2018 6:00 AM 66 93 0 0 1.64
5/10/2018 7:00 AM 66 93 0.01 0 1.07
5/10/2018 8:00 AM 70 88 0.21 0 2.39
5/10/2018 9:00 AM 74 78 0.51 0 7.55
5/10/2018 10:00 AM 75 61 1.73 0 8.79
5/10/2018 11:00 AM 78 59 1.1 0 9.19
5/10/2018 12:00 PM 80 51 3.11 0 9.01
5/10/2018 1:00 PM 82 46 3.26 0 8.05
5/10/2018 2:00 PM 84 38 3.46 0 8.68
5/10/2018 3:00 PM 84 36 3.33 0 9.74
5/10/2018 4:00 PM 85 37 2.99 0 9.18
5/10/2018 5:00 PM 85 37 0.71 0 8.35
5/10/2018 6:00 PM 85 40 1.42 0 7.92
5/10/2018 7:00 PM 85 40 1.03 0 7.77
5/10/2018 8:00 PM 84 39 0.34 0 6.51
5/10/2018 9:00 PM 81 44 0.01 0 4.64
5/10/2018 10:00 PM 78 60 0 0 5.05
5/10/2018 11:00 PM 77 69 0 0 7.27
Data Summary 76 61 23.22 0.00 6.55